Time,TemperatureF,DewpointF,PressureIn,WindDirection,WindDirectionDegrees,WindSpeedMPH,WindSpeedGustMPH,Humidity,HourlyPrecipIn,Conditions,Clouds,dailyrainin,SoftwareType,DateUTC
2017-03-29 00:00:00,43.3,25.9,30.24,NW,315,3.1,3.8,50,0.00,,,0.00,meteobridge,2017-03-29 06:00:00,
2017-03-29 00:05:00,43.7,26.2,30.24,ESE,112,0.0,0.0,50,0.00,,,0.00,meteobridge,2017-03-29 06:05:00,
2017-03-29 00:10:00,43.9,25.9,30.24,NE,45,0.0,1.3,49,0.00,,,0.00,meteobridge,2017-03-29 06:10:00,
2017-03-29 00:15:00,44.1,26.1,30.24,ENE,68,0.0,0.9,49,0.00,,,0.00,meteobridge,2017-03-29 06:15:00,
2017-03-29 00:20:00,44.2,26.2,30.24,NNW,338,1.3,3.4,49,0.00,,,0.00,meteobridge,2017-03-29 06:20:00,
2017-03-29 00:25:00,44.2,26.8,30.24,NW,315,0.9,0.9,50,0.00,,,0.00,meteobridge,2017-03-29 06:25:00,
2017-03-29 00:30:00,44.1,26.6,30.27,ESE,112,2.0,2.7,50,0.00,,,0.00,meteobridge,2017-03-29 06:30:00,
2017-03-29 00:36:00,44.1,26.6,30.27,ENE,68,0.0,2.9,50,0.00,,,0.00,meteobridge,2017-03-29 06:36:00,
2017-03-29 00:41:00,44.1,27.1,30.27,NW,315,1.6,2.2,51,0.00,,,0.00,meteobridge,2017-03-29 06:41:00,
2017-03-29 00:46:00,44.1,27.1,30.27,NNW,338,1.1,2.2,51,0.00,,,0.00,meteobridge,2017-03-29 06:46:00,
2017-03-29 00:51:00,44.1,27.1,30.27,NNE,22,2.0,3.8,51,0.00,,,0.00,meteobridge,2017-03-29 06:51:00,
2017-03-29 00:56:00,44.1,27.1,30.27,North,0,0.0,2.0,51,0.00,,,0.00,meteobridge,2017-03-29 06:56:00,
2017-03-29 01:01:00,43.9,27.0,30.27,NNW,338,0.0,0.0,51,0.00,,,0.00,meteobridge,2017-03-29 07:01:00,
2017-03-29 01:06:00,43.7,26.8,30.27,NNW,338,0.9,3.8,51,0.00,,,0.00,meteobridge,2017-03-29 07:06:00,
2017-03-29 01:11:00,44.1,27.1,30.27,WNW,292,0.0,0.0,51,0.00,,,0.00,meteobridge,2017-03-29 07:11:00,
2017-03-29 01:16:00,44.1,27.1,30.27,WNW,292,0.0,0.0,51,0.00,,,0.00,meteobridge,2017-03-29 07:16:00,
2017-03-29 01:21:00,43.9,27.0,30.27,ENE,68,1.3,1.3,51,0.00,,,0.00,meteobridge,2017-03-29 07:21:00,
2017-03-29 01:26:00,43.9,27.0,30.27,SSW,202,0.0,0.0,51,0.00,,,0.00,meteobridge,2017-03-29 07:26:00,
2017-03-29 01:31:00,43.9,27.0,30.27,WSW,248,0.0,0.0,51,0.00,,,0.00,meteobridge,2017-03-29 07:31:00,
2017-03-29 01:36:00,43.7,26.8,30.27,ESE,112,2.5,2.5,51,0.00,,,0.00,meteobridge,2017-03-29 07:36:00,
2017-03-29 01:41:00,43.9,27.0,30.27,NNW,338,0.0,2.2,51,0.00,,,0.00,meteobridge,2017-03-29 07:41:00,
2017-03-29 01:46:00,43.9,27.3,30.27,NNW,338,2.0,2.0,52,0.00,,,0.00,meteobridge,2017-03-29 07:46:00,
2017-03-29 01:51:00,43.7,27.1,30.27,SSW,202,0.9,1.6,52,0.00,,,0.00,meteobridge,2017-03-29 07:51:00,
2017-03-29 01:56:00,43.7,27.1,30.27,SSW,202,0.0,0.0,52,0.00,,,0.00,meteobridge,2017-03-29 07:56:00,
2017-03-29 02:02:00,43.7,27.1,30.24,SSW,202,0.0,1.3,52,0.00,,,0.00,meteobridge,2017-03-29 08:02:00,
2017-03-29 02:07:00,43.5,27.5,30.24,NNW,338,2.5,2.5,53,0.00,,,0.00,meteobridge,2017-03-29 08:07:00,
2017-03-29 02:12:00,43.3,27.3,30.24,North,0,0.0,0.0,53,0.00,,,0.00,meteobridge,2017-03-29 08:12:00,
2017-03-29 02:17:00,43.3,27.3,30.24,NNW,338,1.1,1.1,53,0.00,,,0.00,meteobridge,2017-03-29 08:17:00,
2017-03-29 02:23:00,43.3,27.9,30.24,NNW,338,0.0,0.0,54,0.00,,,0.00,meteobridge,2017-03-29 08:23:00,
2017-03-29 02:28:00,43.0,27.5,30.24,NW,315,0.0,0.9,54,0.00,,,0.00,meteobridge,2017-03-29 08:28:00,
2017-03-29 02:33:00,43.0,27.5,30.24,WNW,292,1.1,2.7,54,0.00,,,0.00,meteobridge,2017-03-29 08:33:00,
2017-03-29 02:38:00,42.8,27.7,30.24,NNE,22,0.9,1.1,55,0.00,,,0.00,meteobridge,2017-03-29 08:38:00,
2017-03-29 02:43:00,42.8,27.3,30.21,NNW,338,1.3,1.3,54,0.00,,,0.00,meteobridge,2017-03-29 08:43:00,
2017-03-29 02:49:00,42.8,27.3,30.21,North,0,1.3,1.3,54,0.00,,,0.00,meteobridge,2017-03-29 08:49:00,
2017-03-29 02:54:00,43.0,27.5,30.21,North,0,0.0,0.9,54,0.00,,,0.00,meteobridge,2017-03-29 08:54:00,
2017-03-29 02:59:00,43.0,27.9,30.24,NE,45,0.0,1.6,55,0.00,,,0.00,meteobridge,2017-03-29 08:59:00,
2017-03-29 03:04:00,42.8,27.7,30.24,NW,315,0.0,2.0,55,0.00,,,0.00,meteobridge,2017-03-29 09:04:00,
2017-03-29 03:09:00,42.6,27.5,30.24,NW,315,0.0,0.0,55,0.00,,,0.00,meteobridge,2017-03-29 09:09:00,
2017-03-29 03:14:00,42.6,27.5,30.24,NW,315,0.0,0.0,55,0.00,,,0.00,meteobridge,2017-03-29 09:14:00,
2017-03-29 03:19:00,42.6,28.0,30.24,NW,315,0.0,0.0,56,0.00,,,0.00,meteobridge,2017-03-29 09:19:00,
2017-03-29 03:25:00,42.4,27.9,30.24,NW,315,1.1,1.1,56,0.00,,,0.00,meteobridge,2017-03-29 09:25:00,
2017-03-29 03:30:00,42.3,27.7,30.21,North,0,2.2,2.9,56,0.00,,,0.00,meteobridge,2017-03-29 09:30:00,
2017-03-29 03:35:00,42.3,28.0,30.21,ENE,68,0.0,1.6,57,0.00,,,0.00,meteobridge,2017-03-29 09:35:00,
2017-03-29 03:40:00,42.3,28.0,30.21,NNE,22,0.0,0.0,57,0.00,,,0.00,meteobridge,2017-03-29 09:40:00,
2017-03-29 03:45:00,42.3,28.0,30.21,NNE,22,0.9,0.9,57,0.00,,,0.00,meteobridge,2017-03-29 09:45:00,
2017-03-29 03:50:00,42.1,28.4,30.21,NW,315,2.9,2.9,58,0.00,,,0.00,meteobridge,2017-03-29 09:50:00,
2017-03-29 03:55:00,41.9,28.2,30.21,NW,315,0.0,0.0,58,0.00,,,0.00,meteobridge,2017-03-29 09:55:00,
2017-03-29 04:00:00,41.9,28.2,30.24,NW,315,0.0,0.0,58,0.00,,,0.00,meteobridge,2017-03-29 10:00:00,
2017-03-29 04:05:00,41.7,28.4,30.24,NNW,338,0.9,2.0,59,0.00,,,0.00,meteobridge,2017-03-29 10:05:00,
2017-03-29 04:10:00,41.4,28.0,30.24,ENE,68,0.0,1.3,59,0.00,,,0.00,meteobridge,2017-03-29 10:10:00,
2017-03-29 04:15:00,41.2,28.4,30.24,North,0,0.0,0.0,60,0.00,,,0.00,meteobridge,2017-03-29 10:15:00,
2017-03-29 04:20:00,41.2,28.4,30.24,NNW,338,1.6,3.1,60,0.00,,,0.00,meteobridge,2017-03-29 10:20:00,
2017-03-29 04:25:00,41.0,28.2,30.24,NNE,22,0.0,0.0,60,0.00,,,0.00,meteobridge,2017-03-29 10:25:00,
2017-03-29 04:30:00,40.8,28.8,30.24,NNE,22,0.0,0.0,62,0.00,,,0.00,meteobridge,2017-03-29 10:30:00,
2017-03-29 04:36:00,40.8,28.8,30.24,NNE,22,0.0,0.0,62,0.00,,,0.00,meteobridge,2017-03-29 10:36:00,
2017-03-29 04:41:00,40.8,28.8,30.24,WNW,292,1.1,1.1,62,0.00,,,0.00,meteobridge,2017-03-29 10:41:00,
2017-03-29 04:46:00,40.6,28.6,30.24,NE,45,0.0,2.2,62,0.00,,,0.00,meteobridge,2017-03-29 10:46:00,
2017-03-29 04:51:00,40.6,28.6,30.24,NNE,22,0.0,2.0,62,0.00,,,0.00,meteobridge,2017-03-29 10:51:00,
2017-03-29 04:56:00,40.6,29.1,30.24,NNW,338,1.6,1.6,63,0.00,,,0.00,meteobridge,2017-03-29 10:56:00,
2017-03-29 05:01:00,40.6,29.1,30.24,North,0,0.0,0.9,63,0.00,,,0.00,meteobridge,2017-03-29 11:01:00,
2017-03-29 05:06:00,40.5,29.3,30.24,NNW,338,0.0,2.5,64,0.00,,,0.00,meteobridge,2017-03-29 11:06:00,
2017-03-29 05:11:00,40.5,28.9,30.24,ENE,68,2.0,2.5,63,0.00,,,0.00,meteobridge,2017-03-29 11:11:00,
2017-03-29 05:16:00,40.5,28.9,30.21,NNW,338,1.3,2.7,63,0.00,,,0.00,meteobridge,2017-03-29 11:16:00,
2017-03-29 05:21:00,40.5,28.4,30.21,North,0,0.9,0.9,62,0.00,,,0.00,meteobridge,2017-03-29 11:21:00,
2017-03-29 05:26:00,40.5,28.9,30.21,North,0,1.3,1.6,63,0.00,,,0.00,meteobridge,2017-03-29 11:26:00,
2017-03-29 05:31:00,40.5,28.9,30.21,North,0,0.0,0.0,63,0.00,,,0.00,meteobridge,2017-03-29 11:31:00,
2017-03-29 05:36:00,40.5,29.3,30.21,North,0,1.1,1.1,64,0.00,,,0.00,meteobridge,2017-03-29 11:36:00,
2017-03-29 05:41:00,40.5,28.9,30.21,NNE,22,2.0,2.0,63,0.00,,,0.00,meteobridge,2017-03-29 11:41:00,
2017-03-29 05:46:00,40.5,29.3,30.24,ENE,68,1.1,2.2,64,0.00,,,0.00,meteobridge,2017-03-29 11:46:00,
2017-03-29 05:51:00,40.6,29.1,30.24,ENE,68,0.0,0.9,63,0.00,,,0.00,meteobridge,2017-03-29 11:51:00,
2017-03-29 05:56:00,41.0,28.9,30.24,ESE,112,2.0,2.2,62,0.00,,,0.00,meteobridge,2017-03-29 11:56:00,
2017-03-29 06:02:00,41.0,28.9,30.21,SE,135,1.3,2.0,62,0.00,,,0.00,meteobridge,2017-03-29 12:02:00,
2017-03-29 06:07:00,41.0,28.9,30.21,SSE,158,0.0,1.3,62,0.00,,,0.00,meteobridge,2017-03-29 12:07:00,
2017-03-29 06:12:00,41.0,28.6,30.21,South,180,0.0,0.0,61,0.00,,,0.00,meteobridge,2017-03-29 12:12:00,
2017-03-29 06:17:00,41.0,28.6,30.21,SE,135,1.1,1.1,61,0.00,,,0.00,meteobridge,2017-03-29 12:17:00,
2017-03-29 06:22:00,41.0,28.9,30.21,ESE,112,0.0,0.0,62,0.00,,,0.00,meteobridge,2017-03-29 12:22:00,
2017-03-29 06:27:00,41.0,28.6,30.21,WNW,292,0.0,0.0,61,0.00,,,0.00,meteobridge,2017-03-29 12:27:00,
2017-03-29 06:32:00,40.8,28.8,30.21,WNW,292,0.0,0.0,62,0.00,,,0.00,meteobridge,2017-03-29 12:32:00,
2017-03-29 06:37:00,40.6,29.1,30.21,WNW,292,0.0,0.0,63,0.00,,,0.00,meteobridge,2017-03-29 12:37:00,
2017-03-29 06:42:00,40.5,28.9,30.18,WNW,292,0.0,0.0,63,0.00,,,0.00,meteobridge,2017-03-29 12:42:00,
2017-03-29 06:47:00,40.3,28.8,30.18,WNW,292,0.0,0.0,63,0.00,,,0.00,meteobridge,2017-03-29 12:47:00,
2017-03-29 06:52:00,40.1,28.9,30.18,WNW,292,0.0,0.0,64,0.00,,,0.00,meteobridge,2017-03-29 12:52:00,
2017-03-29 06:57:00,39.7,28.9,30.18,WNW,292,0.0,0.0,65,0.00,,,0.00,meteobridge,2017-03-29 12:57:00,
2017-03-29 07:03:00,39.4,28.6,30.18,WNW,292,0.0,0.0,65,0.00,,,0.00,meteobridge,2017-03-29 13:03:00,
2017-03-29 07:08:00,39.4,28.6,30.18,WNW,292,0.0,0.9,65,0.00,,,0.00,meteobridge,2017-03-29 13:08:00,
2017-03-29 07:13:00,39.2,28.8,30.18,WNW,292,0.0,0.0,66,0.00,,,0.00,meteobridge,2017-03-29 13:13:00,
2017-03-29 07:18:00,39.0,28.9,30.18,WNW,292,0.0,0.0,67,0.00,,,0.00,meteobridge,2017-03-29 13:18:00,
2017-03-29 07:23:00,38.8,28.8,30.18,WNW,292,0.0,0.0,67,0.00,,,0.00,meteobridge,2017-03-29 13:23:00,
2017-03-29 07:28:00,38.7,29.3,30.18,WNW,292,0.0,0.9,69,0.00,,,0.00,meteobridge,2017-03-29 13:28:00,
2017-03-29 07:33:00,38.5,29.1,30.18,WNW,292,0.0,0.0,69,0.00,,,0.00,meteobridge,2017-03-29 13:33:00,
2017-03-29 07:38:00,38.7,29.3,30.18,NW,315,0.9,1.3,69,0.00,,,0.00,meteobridge,2017-03-29 13:38:00,
2017-03-29 07:43:00,38.8,29.5,30.18,NW,315,0.0,0.0,69,0.00,,,0.00,meteobridge,2017-03-29 13:43:00,
2017-03-29 07:48:00,39.0,29.7,30.18,NNW,338,0.0,1.1,69,0.00,,,0.00,meteobridge,2017-03-29 13:48:00,
2017-03-29 07:54:00,39.2,29.5,30.18,NNW,338,0.0,0.0,68,0.00,,,0.00,meteobridge,2017-03-29 13:54:00,
2017-03-29 07:59:00,39.6,29.8,30.21,NNW,338,0.0,0.0,68,0.00,,,0.00,meteobridge,2017-03-29 13:59:00,
2017-03-29 08:04:00,39.9,30.2,30.21,NNW,338,0.0,0.0,68,0.00,,,0.00,meteobridge,2017-03-29 14:04:00,
2017-03-29 08:09:00,40.3,30.6,30.21,NNW,338,0.0,0.0,68,0.00,,,0.00,meteobridge,2017-03-29 14:09:00,
2017-03-29 08:14:00,40.3,30.6,30.18,NNW,338,0.0,0.0,68,0.00,,,0.00,meteobridge,2017-03-29 14:14:00,
2017-03-29 08:19:00,40.5,30.0,30.18,NNW,338,0.0,0.0,66,0.00,,,0.00,meteobridge,2017-03-29 14:19:00,
2017-03-29 08:24:00,40.6,30.2,30.18,WNW,292,0.0,0.0,66,0.00,,,0.00,meteobridge,2017-03-29 14:24:00,
2017-03-29 08:29:00,40.8,30.7,30.18,NW,315,1.1,2.2,67,0.00,,,0.00,meteobridge,2017-03-29 14:29:00,